Time;durP1;ratioP1;P1;durP2;ratioP2;P2;SDS_P1;SDS_P2;PMS_P1;PMS_P2;Temp;Humidity;BMP_temperature;BMP_pressure;BME280_temperature;BME280_humidity;BME280_pressure;Samples;Min_cycle;Max_cycle;Signal;HPM_P1;HPM_P2
2023/04/23 00:00:20;;;;;;;26.08;20.50;;;9.20;99.90;;;;;;5157549;27;20035;-58
2023/04/23 00:02:51;;;;;;;51.05;24.08;;;9.20;99.90;;;;;;5157573;27;20050;-59
2023/04/23 00:05:18;;;;;;;115.38;27.33;;;9.10;99.90;;;;;;5157420;27;20050;-59
2023/04/23 00:07:44;;;;;;;51.90;24.83;;;9.10;99.90;;;;;;5157408;27;20035;-58
2023/04/23 00:10:09;;;;;;;83.88;25.65;;;8.90;99.90;;;;;;5157357;27;20126;-59
2023/04/23 00:12:35;;;;;;;65.20;27.75;;;8.90;99.90;;;;;;5157160;27;20031;-58
2023/04/23 00:15:02;;;;;;;83.97;26.73;;;8.90;99.90;;;;;;5156772;27;20122;-59
2023/04/23 00:17:28;;;;;;;40.75;23.95;;;8.70;99.90;;;;;;5157413;27;20037;-58
2023/04/23 00:19:54;;;;;;;38.47;24.58;;;8.70;99.90;;;;;;5157020;27;20423;-58
2023/04/23 00:22:20;;;;;;;90.68;25.35;;;8.70;99.90;;;;;;5157116;27;20038;-58
2023/04/23 00:24:46;;;;;;;63.60;26.30;;;8.70;99.90;;;;;;5157172;27;20384;-59
2023/04/23 00:27:12;;;;;;;66.22;27.60;;;8.70;99.90;;;;;;5156895;27;20035;-59
2023/04/23 00:29:38;;;;;;;43.25;28.42;;;8.60;99.90;;;;;;5156727;27;20042;-58
2023/04/23 00:32:03;;;;;;;36.92;26.48;;;8.70;99.90;;;;;;5155931;27;20043;-59
2023/04/23 00:34:29;;;;;;;33.35;23.73;;;8.70;99.90;;;;;;5138050;27;20054;-58
2023/04/23 00:36:55;;;;;;;95.88;25.52;;;8.70;99.90;;;;;;5156664;27;20380;-59
2023/04/23 00:39:21;;;;;;;50.78;24.90;;;8.80;99.90;;;;;;5156221;27;20038;-59
2023/04/23 00:41:47;;;;;;;36.40;23.65;;;8.60;99.90;;;;;;5156620;27;20045;-58
2023/04/23 00:44:13;;;;;;;83.32;26.17;;;8.70;99.90;;;;;;5137207;27;20493;-58
2023/04/23 00:46:39;;;;;;;33.72;23.17;;;8.60;99.90;;;;;;5156544;27;20046;-59
2023/04/23 00:49:04;;;;;;;56.67;24.33;;;8.70;99.90;;;;;;5156421;27;20114;-58
2023/04/23 00:51:33;;;;;;;38.10;23.45;;;8.70;99.90;;;;;;5156183;27;20380;-58
2023/04/23 00:53:59;;;;;;;92.00;26.92;;;8.60;99.90;;;;;;5156071;27;20456;-58
2023/04/23 00:56:26;;;;;;;36.50;23.00;;;8.60;99.90;;;;;;5137565;27;20085;-58
2023/04/23 00:58:53;;;;;;;32.25;23.98;;;8.60;99.90;;;;;;5156308;27;20106;-58
2023/04/23 01:01:20;;;;;;;62.72;25.95;;;8.60;99.90;;;;;;5156326;27;20035;-58
2023/04/23 01:03:51;;;;;;;45.38;24.27;;;8.60;99.90;;;;;;5155847;27;20468;-59
2023/04/23 01:06:17;;;;;;;46.50;25.02;;;8.60;99.90;;;;;;5156365;27;20043;-59
2023/04/23 01:08:44;;;;;;;54.17;25.88;;;8.60;99.90;;;;;;5156085;27;20034;-59
2023/04/23 01:11:13;;;;;;;44.90;24.98;;;8.50;99.90;;;;;;5155952;27;20096;-58
2023/04/23 01:13:40;;;;;;;;;;;8.60;99.90;;;;;;5156471;27;20397;-58
2023/04/23 01:16:07;;;;;;;59.97;27.50;;;8.50;99.90;;;;;;5155963;27;19959;-58
2023/04/23 01:18:33;;;;;;;57.60;27.10;;;8.50;99.90;;;;;;5155964;27;20038;-58
2023/04/23 01:20:58;;;;;;;47.15;26.40;;;8.40;99.90;;;;;;5155455;27;20515;-58
2023/04/23 01:23:26;;;;;;;48.53;28.50;;;8.50;99.90;;;;;;5155696;27;20066;-59
2023/04/23 01:25:52;;;;;;;52.70;27.98;;;8.40;99.90;;;;;;5155457;27;20469;-58
2023/04/23 01:28:18;;;;;;;48.67;25.35;;;8.40;99.90;;;;;;5155576;27;20039;-59
2023/04/23 01:30:45;;;;;;;45.00;26.73;;;8.40;99.90;;;;;;5155531;27;20034;-59
2023/04/23 01:33:11;;;;;;;56.42;26.75;;;8.40;99.90;;;;;;5155456;27;20042;-58
2023/04/23 01:35:37;;;;;;;62.50;26.05;;;8.30;99.90;;;;;;5136962;27;20043;-60
2023/04/23 01:38:04;;;;;;;48.13;25.50;;;8.30;99.90;;;;;;5155307;27;20034;-58
2023/04/23 01:40:30;;;;;;;56.03;27.83;;;8.30;99.90;;;;;;5155361;27;20026;-59
2023/04/23 01:42:56;;;;;;;33.47;24.92;;;8.20;99.90;;;;;;5155074;27;20476;-59
2023/04/23 01:45:22;;;;;;;36.47;26.13;;;8.40;99.90;;;;;;5154790;27;20054;-58
2023/04/23 01:47:48;;;;;;;40.60;26.92;;;8.40;99.90;;;;;;5155290;27;20631;-59
2023/04/23 01:50:14;;;;;;;42.42;28.67;;;8.30;99.90;;;;;;5155158;27;20100;-59
2023/04/23 01:52:40;;;;;;;44.33;28.50;;;8.20;99.90;;;;;;5154886;27;20411;-60
2023/04/23 01:55:07;;;;;;;38.83;26.77;;;8.20;99.90;;;;;;5155285;27;20398;-58
2023/04/23 01:57:33;;;;;;;37.20;25.55;;;8.30;99.90;;;;;;5155068;27;20042;-58
2023/04/23 02:00:10;;;;;;;41.65;27.23;;;8.30;99.90;;;;;;5154967;27;20075;-58
2023/04/23 02:02:37;;;;;;;40.55;27.77;;;8.30;99.90;;;;;;5154832;27;20039;-58
2023/04/23 02:05:03;;;;;;;40.70;26.95;;;8.30;99.90;;;;;;5154807;27;20042;-58
2023/04/23 02:07:33;;;;;;;38.58;27.55;;;8.30;99.90;;;;;;5154440;27;20074;-58
2023/04/23 02:09:59;;;;;;;47.53;29.45;;;8.30;99.90;;;;;;5154724;27;20358;-58
2023/04/23 02:12:25;;;;;;;47.35;31.38;;;8.20;99.90;;;;;;5154779;27;20384;-59
2023/04/23 02:14:52;;;;;;;49.15;30.38;;;8.20;99.90;;;;;;5154718;27;20080;-58
2023/04/23 02:17:20;;;;;;;45.72;31.02;;;8.20;99.90;;;;;;5154678;27;20038;-58
2023/04/23 02:19:46;;;;;;;50.35;32.25;;;8.20;99.90;;;;;;5154439;27;20035;-58
2023/04/23 02:22:11;;;;;;;45.47;29.92;;;8.20;99.90;;;;;;5154147;27;20126;-59
2023/04/23 02:24:37;;;;;;;47.42;30.30;;;8.20;99.90;;;;;;5154488;27;20042;-59
2023/04/23 02:27:03;;;;;;;47.10;30.38;;;8.20;99.90;;;;;;5154373;27;20503;-59
2023/04/23 02:29:29;;;;;;;45.47;30.67;;;8.20;99.90;;;;;;5154270;27;20038;-59
2023/04/23 02:31:55;;;;;;;45.42;29.63;;;8.20;99.90;;;;;;5154750;27;20099;-58
2023/04/23 02:34:20;;;;;;;49.28;31.58;;;8.20;99.90;;;;;;5154562;27;20039;-58
2023/04/23 02:36:46;;;;;;;45.38;30.05;;;8.20;99.90;;;;;;5154325;27;20034;-58
2023/04/23 02:39:11;;;;;;;49.13;31.45;;;8.10;99.90;;;;;;5135737;27;20039;-59
2023/04/23 02:41:37;;;;;;;54.25;33.45;;;8.10;99.90;;;;;;5154415;27;20043;-58
2023/04/23 02:44:03;;;;;;;43.20;30.50;;;8.10;99.90;;;;;;5154109;27;20046;-59
2023/04/23 02:46:28;;;;;;;51.17;32.75;;;8.10;99.90;;;;;;5154392;27;20468;-59
2023/04/23 02:48:54;;;;;;;49.45;32.22;;;8.10;99.90;;;;;;5136014;27;20472;-59
2023/04/23 02:51:20;;;;;;;53.95;33.22;;;8.00;99.90;;;;;;5154010;27;20437;-59
2023/04/23 02:53:45;;;;;;;52.97;32.85;;;8.00;99.90;;;;;;5155239;27;20473;-58
2023/04/23 02:56:11;;;;;;;48.38;31.42;;;7.90;99.90;;;;;;5158320;27;20465;-59
2023/04/23 02:58:37;;;;;;;56.22;35.00;;;8.00;99.90;;;;;;5140052;27;20046;-58
2023/04/23 03:01:03;;;;;;;50.95;34.50;;;7.90;99.90;;;;;;5158239;27;20030;-58
2023/04/23 03:03:30;;;;;;;57.42;35.35;;;7.90;99.90;;;;;;5158179;27;20027;-58
2023/04/23 03:05:56;;;;;;;64.03;37.20;;;7.90;99.90;;;;;;5158185;27;20099;-58
2023/04/23 03:08:22;;;;;;;70.28;39.50;;;8.00;99.90;;;;;;5158319;27;20031;-58
2023/04/23 03:10:48;;;;;;;98.55;42.92;;;7.90;99.90;;;;;;5158336;27;20388;-58
2023/04/23 03:13:13;;;;;;;100.32;42.78;;;7.90;99.90;;;;;;5158186;27;20422;-58
2023/04/23 03:15:40;;;;;;;187.02;45.25;;;7.90;99.90;;;;;;5158325;27;20038;-58
2023/04/23 03:18:07;;;;;;;134.93;43.40;;;7.90;99.90;;;;;;5158300;27;20038;-58
2023/04/23 03:20:33;;;;;;;167.60;42.75;;;8.00;99.90;;;;;;5158090;27;20055;-58
2023/04/23 03:22:59;;;;;;;97.68;42.60;;;7.80;99.90;;;;;;5158267;27;20482;-58
2023/04/23 03:25:25;;;;;;;83.18;42.58;;;7.70;99.90;;;;;;5157679;27;20070;-59
2023/04/23 03:27:51;;;;;;;150.43;42.72;;;7.80;99.90;;;;;;5158040;27;20503;-58
2023/04/23 03:30:17;;;;;;;111.47;42.83;;;7.80;99.90;;;;;;5157890;27;20034;-58
2023/04/23 03:32:43;;;;;;;143.00;45.58;;;7.80;99.90;;;;;;5157549;27;20095;-58
2023/04/23 03:35:08;;;;;;;147.48;44.45;;;7.80;99.90;;;;;;5157660;27;20035;-58
2023/04/23 03:37:34;;;;;;;130.75;45.80;;;7.80;99.90;;;;;;5157729;27;20039;-58
2023/04/23 03:40:06;;;;;;;87.22;42.22;;;7.80;99.90;;;;;;5157422;27;20392;-58
2023/04/23 03:42:32;;;;;;;109.43;44.80;;;7.80;99.90;;;;;;5139145;27;20386;-58
2023/04/23 03:44:59;;;;;;;89.80;44.58;;;7.80;99.90;;;;;;5157206;27;20074;-58
2023/04/23 03:47:25;;;;;;;131.20;47.15;;;7.80;99.90;;;;;;5157450;27;20045;-58
2023/04/23 03:49:51;;;;;;;149.73;48.58;;;7.80;99.90;;;;;;5157566;27;20394;-58
2023/04/23 03:52:17;;;;;;;130.80;48.22;;;7.70;99.90;;;;;;5157094;27;20481;-58
2023/04/23 03:54:43;;;;;;;120.50;47.33;;;7.80;99.90;;;;;;5157196;27;20504;-59
2023/04/23 03:57:10;;;;;;;305.15;58.85;;;7.90;99.90;;;;;;5157703;27;20066;-60
2023/04/23 03:59:36;;;;;;;106.43;47.72;;;7.70;99.90;;;;;;5157232;27;20066;-58
2023/04/23 04:02:05;;;;;;;157.13;51.58;;;7.80;99.90;;;;;;5157282;27;20444;-58
2023/04/23 04:04:31;;;;;;;92.80;46.75;;;7.80;99.90;;;;;;5156868;27;20047;-58
2023/04/23 04:06:59;;;;;;;110.18;48.13;;;7.80;99.90;;;;;;5156022;27;20046;-60
2023/04/23 04:09:25;;;;;;;114.50;50.80;;;7.90;99.90;;;;;;5156963;27;20046;-58
2023/04/23 04:11:52;;;;;;;164.38;53.53;;;7.90;99.90;;;;;;5156734;27;20130;-58
2023/04/23 04:14:18;;;;;;;113.97;51.83;;;7.90;99.90;;;;;;5156839;27;20113;-58
2023/04/23 04:16:44;;;;;;;94.25;50.65;;;7.90;99.90;;;;;;5156574;27;20468;-58
2023/04/23 04:19:10;;;;;;;144.43;55.65;;;7.90;99.90;;;;;;5157061;27;20488;-58
2023/04/23 04:21:36;;;;;;;106.18;50.92;;;7.90;99.90;;;;;;5156741;27;20043;-58
2023/04/23 04:24:05;;;;;;;161.00;56.92;;;7.90;99.90;;;;;;5156875;27;20060;-58
2023/04/23 04:26:31;;;;;;;111.03;53.75;;;8.00;99.90;;;;;;5156877;27;20077;-59
2023/04/23 04:28:58;;;;;;;97.93;53.17;;;7.90;99.90;;;;;;5157036;27;20077;-59
2023/04/23 04:31:26;;;;;;;111.65;56.10;;;8.10;99.90;;;;;;5156402;27;20472;-58
2023/04/23 04:33:54;;;;;;;103.75;53.25;;;8.00;99.90;;;;;;5156713;27;20045;-59
2023/04/23 04:36:20;;;;;;;122.05;55.67;;;8.00;99.90;;;;;;5156719;27;20043;-58
2023/04/23 04:38:46;;;;;;;116.70;55.28;;;8.00;99.90;;;;;;5156296;27;20026;-59
2023/04/23 04:41:12;;;;;;;117.72;54.05;;;7.90;99.90;;;;;;5156013;27;20117;-58
2023/04/23 04:43:38;;;;;;;118.75;56.40;;;8.00;99.90;;;;;;5156085;27;20031;-58
2023/04/23 04:46:04;;;;;;;108.97;54.97;;;8.00;99.90;;;;;;5156428;27;20045;-58
2023/04/23 04:48:30;;;;;;;123.63;56.53;;;8.00;99.90;;;;;;5137410;27;20396;-58
2023/04/23 04:50:56;;;;;;;111.10;56.50;;;8.10;99.90;;;;;;5156416;27;20034;-58
2023/04/23 04:53:22;;;;;;;106.72;56.15;;;8.00;99.90;;;;;;5155949;27;20072;-59
2023/04/23 04:55:48;;;;;;;102.78;53.90;;;8.00;99.90;;;;;;5156130;27;20039;-58
2023/04/23 04:58:14;;;;;;;106.22;55.17;;;8.20;99.90;;;;;;5156313;27;20384;-58
2023/04/23 05:00:39;;;;;;;117.22;55.85;;;8.10;99.90;;;;;;5156335;27;20049;-59
2023/04/23 05:03:06;;;;;;;92.28;51.58;;;8.20;99.90;;;;;;5156324;27;20129;-58
2023/04/23 05:05:32;;;;;;;95.35;53.10;;;8.10;99.90;;;;;;5156647;27;20417;-58
2023/04/23 05:08:00;;;;;;;94.35;52.42;;;8.10;99.90;;;;;;5155535;27;20045;-59
2023/04/23 05:10:27;;;;;;;93.20;51.13;;;8.20;99.90;;;;;;5156367;27;20763;-58
2023/04/23 05:12:53;;;;;;;89.13;49.47;;;8.20;99.90;;;;;;5155804;27;20042;-58
2023/04/23 05:15:18;;;;;;;84.35;49.40;;;8.20;99.90;;;;;;5155531;27;20035;-58
2023/04/23 05:17:44;;;;;;;90.10;49.83;;;8.10;99.90;;;;;;5150579;27;20038;-58
2023/04/23 05:20:10;;;;;;;88.88;49.00;;;8.20;99.90;;;;;;5135157;27;20042;-58
2023/04/23 05:22:37;;;;;;;91.07;48.92;;;8.30;99.90;;;;;;5135138;27;20426;-58
2023/04/23 05:25:04;;;;;;;90.82;49.17;;;8.20;99.90;;;;;;5134900;27;20087;-58
2023/04/23 05:27:30;;;;;;;79.03;46.35;;;8.30;99.90;;;;;;5134523;27;20050;-58
2023/04/23 05:29:55;;;;;;;85.18;49.50;;;8.20;99.90;;;;;;5135066;27;20393;-58
2023/04/23 05:32:21;;;;;;;92.65;50.10;;;8.20;99.90;;;;;;5134975;27;20477;-59
2023/04/23 05:34:47;;;;;;;83.85;49.45;;;8.30;99.90;;;;;;5135096;27;20488;-59
2023/04/23 05:37:12;;;;;;;84.68;48.78;;;8.20;99.90;;;;;;5134885;27;20039;-59
2023/04/23 05:39:38;;;;;;;83.68;48.05;;;8.20;99.90;;;;;;5134992;27;20042;-59
2023/04/23 05:42:04;;;;;;;86.57;49.00;;;8.30;99.90;;;;;;5134704;27;20050;-58
2023/04/23 05:44:29;;;;;;;87.10;48.63;;;8.20;99.90;;;;;;5134578;27;20409;-58
2023/04/23 05:46:55;;;;;;;88.45;49.70;;;8.30;99.90;;;;;;5134873;27;20154;-58
2023/04/23 05:49:21;;;;;;;98.35;52.03;;;8.20;99.90;;;;;;5115658;27;20051;-59
2023/04/23 05:51:46;;;;;;;103.35;51.40;;;8.10;99.90;;;;;;5134746;27;20042;-58
2023/04/23 05:54:12;;;;;;;87.88;51.38;;;8.20;99.90;;;;;;5134446;27;20123;-58
2023/04/23 05:56:38;;;;;;;99.72;51.75;;;8.30;99.90;;;;;;5135038;27;20039;-59
2023/04/23 05:59:05;;;;;;;90.70;51.60;;;8.40;99.90;;;;;;5134493;27;20034;-59
2023/04/23 06:01:31;;;;;;;93.00;52.28;;;8.40;99.90;;;;;;5134638;27;20035;-58
2023/04/23 06:03:56;;;;;;;101.50;53.08;;;8.30;99.90;;;;;;5115985;27;20035;-59
2023/04/23 06:06:22;;;;;;;106.43;55.80;;;8.40;99.90;;;;;;5134194;27;20042;-58
2023/04/23 06:08:49;;;;;;;96.70;53.33;;;8.40;99.90;;;;;;5134432;27;20043;-59
2023/04/23 06:11:15;;;;;;;109.65;56.45;;;8.50;99.90;;;;;;5134272;27;20043;-58
2023/04/23 06:13:41;;;;;;;105.32;55.50;;;8.40;99.90;;;;;;5134307;27;20038;-58
2023/04/23 06:16:07;;;;;;;105.47;56.60;;;8.60;99.90;;;;;;5133854;27;20125;-58
2023/04/23 06:18:34;;;;;;;108.90;55.88;;;8.60;99.90;;;;;;5134275;27;20126;-59
2023/04/23 06:21:03;;;;;;;110.97;55.33;;;8.70;99.90;;;;;;5134210;27;20038;-58
2023/04/23 06:23:29;;;;;;;108.97;57.70;;;8.70;99.90;;;;;;5134096;27;20062;-59
2023/04/23 06:25:55;;;;;;;102.78;56.75;;;8.90;99.90;;;;;;5134025;27;20118;-59
2023/04/23 06:28:20;;;;;;;106.40;56.95;;;9.10;99.90;;;;;;5133527;27;20122;-59
2023/04/23 06:30:46;;;;;;;97.00;53.90;;;9.20;99.90;;;;;;5134100;27;20058;-59
2023/04/23 06:33:13;;;;;;;103.30;54.85;;;9.50;99.90;;;;;;5133952;27;20039;-59
2023/04/23 06:35:38;;;;;;;93.72;54.55;;;9.70;99.90;;;;;;5133957;27;20126;-58
2023/04/23 06:38:05;;;;;;;92.75;53.33;;;9.90;99.90;;;;;;5134060;27;20223;-58
2023/04/23 06:40:31;;;;;;;92.53;52.47;;;9.80;99.90;;;;;;5134071;27;20117;-58
2023/04/23 06:42:57;;;;;;;84.00;49.97;;;9.80;99.90;;;;;;5134001;28;20122;-59
2023/04/23 06:45:23;;;;;;;86.70;51.47;;;10.00;99.90;;;;;;5133371;28;20165;-59
2023/04/23 06:47:48;;;;;;;89.60;51.00;;;10.00;99.90;;;;;;5133865;28;20047;-59
2023/04/23 06:50:14;;;;;;;83.53;50.13;;;10.10;99.90;;;;;;5115170;28;20412;-58
2023/04/23 06:52:40;;;;;;;89.35;49.90;;;10.10;99.90;;;;;;5133529;28;20042;-59
2023/04/23 06:55:07;;;;;;;77.10;47.15;;;10.10;99.90;;;;;;5133973;28;20047;-59
2023/04/23 06:57:32;;;;;;;75.55;48.35;;;10.10;99.90;;;;;;5133509;28;20122;-59
2023/04/23 06:59:58;;;;;;;78.57;49.60;;;10.50;99.90;;;;;;5133632;28;20126;-59
2023/04/23 07:02:24;;;;;;;76.38;50.08;;;10.80;99.90;;;;;;5133784;28;20050;-59
2023/04/23 07:04:49;;;;;;;71.70;44.83;;;11.00;99.90;;;;;;5133594;28;20476;-59
2023/04/23 07:07:15;;;;;;;67.75;45.97;;;11.00;99.90;;;;;;5133735;28;20041;-59
2023/04/23 07:09:40;;;;;;;64.47;44.72;;;11.30;99.90;;;;;;5133565;28;20039;-58
2023/04/23 07:12:06;;;;;;;61.50;42.25;;;11.60;99.90;;;;;;5133540;28;20039;-58
2023/04/23 07:14:32;;;;;;;61.42;42.92;;;11.70;99.90;;;;;;5133982;28;20084;-59
2023/04/23 07:16:58;;;;;;;58.42;40.55;;;11.90;99.90;;;;;;5133476;28;20385;-59
2023/04/23 07:19:24;;;;;;;62.35;41.75;;;12.10;99.90;;;;;;5133593;28;20043;-58
2023/04/23 07:21:49;;;;;;;55.70;39.78;;;12.40;99.90;;;;;;5133614;28;20600;-59
2023/04/23 07:24:15;;;;;;;56.35;39.63;;;12.40;99.90;;;;;;5133252;28;20042;-59
2023/04/23 07:26:41;;;;;;;50.13;36.42;;;12.60;99.90;;;;;;5133309;28;20039;-59
2023/04/23 07:29:09;;;;;;;55.40;37.53;;;12.70;99.90;;;;;;5133272;27;20062;-59
2023/04/23 07:31:35;;;;;;;50.70;37.20;;;12.70;99.90;;;;;;5133432;28;20487;-59
2023/04/23 07:34:01;;;;;;;49.22;35.72;;;12.70;99.90;;;;;;5133557;28;20264;-59
2023/04/23 07:36:27;;;;;;;55.20;37.58;;;12.90;99.90;;;;;;5133401;28;20384;-59
2023/04/23 07:38:53;;;;;;;52.05;35.95;;;12.90;99.90;;;;;;5133033;28;20050;-59
2023/04/23 07:41:19;;;;;;;46.85;34.78;;;12.90;99.90;;;;;;5136632;27;20163;-59
2023/04/23 07:43:45;;;;;;;49.90;35.75;;;12.90;99.90;;;;;;5137061;27;20074;-60
2023/04/23 07:46:11;;;;;;;49.20;36.33;;;12.60;99.90;;;;;;5137154;27;20043;-59
2023/04/23 07:48:36;;;;;;;45.65;34.22;;;12.70;99.90;;;;;;5136707;27;20035;-59
2023/04/23 07:51:02;;;;;;;49.85;36.03;;;12.60;99.90;;;;;;5118672;27;20049;-60
2023/04/23 07:53:28;;;;;;;52.97;35.75;;;12.60;99.90;;;;;;5136387;27;20035;-60
2023/04/23 07:55:57;;;;;;;46.88;35.20;;;12.70;99.90;;;;;;5117984;27;20076;-59
2023/04/23 07:58:23;;;;;;;48.72;34.63;;;12.90;99.90;;;;;;5118966;27;20039;-59
2023/04/23 08:00:49;;;;;;;42.67;31.98;;;12.90;99.90;;;;;;5136580;27;20035;-60
2023/04/23 08:03:15;;;;;;;43.72;33.35;;;13.00;99.90;;;;;;5136531;27;20059;-60
2023/04/23 08:05:41;;;;;;;43.50;32.83;;;13.40;99.90;;;;;;5137469;27;20456;-60
2023/04/23 08:08:07;;;;;;;42.08;32.17;;;13.70;99.90;;;;;;5148295;27;20519;-60
2023/04/23 08:10:34;;;;;;;42.75;33.00;;;13.70;99.90;;;;;;5149190;27;20041;-60
2023/04/23 08:13:00;;;;;;;36.67;28.48;;;14.00;99.90;;;;;;5148336;27;20543;-61
2023/04/23 08:15:26;;;;;;;38.55;29.60;;;14.20;99.90;;;;;;5151765;27;20042;-60
2023/04/23 08:17:51;;;;;;;40.58;29.25;;;14.60;99.90;;;;;;5147175;27;20381;-59
2023/04/23 08:20:18;;;;;;;34.40;28.52;;;14.70;99.90;;;;;;5136463;27;20392;-60
2023/04/23 08:22:43;;;;;;;38.72;29.88;;;14.90;99.90;;;;;;5136489;27;20043;-60
2023/04/23 08:25:09;;;;;;;38.25;28.00;;;15.30;99.90;;;;;;5118179;27;20039;-59
2023/04/23 08:27:35;;;;;;;40.20;28.48;;;15.40;99.90;;;;;;5136442;27;20043;-59
2023/04/23 08:30:01;;;;;;;33.80;27.83;;;15.50;99.90;;;;;;5135968;27;20039;-59
2023/04/23 08:32:28;;;;;;;35.15;27.60;;;15.60;99.90;;;;;;5136243;27;20065;-59
2023/04/23 08:34:53;;;;;;;34.50;26.90;;;15.80;99.90;;;;;;5136179;27;20118;-59
2023/04/23 08:37:19;;;;;;;36.10;25.75;;;16.10;99.90;;;;;;5135975;27;20131;-59
2023/04/23 08:39:45;;;;;;;32.72;26.05;;;16.30;99.90;;;;;;5136152;27;20046;-59
2023/04/23 08:42:23;;;;;;;30.42;24.00;;;16.30;99.90;;;;;;5135227;27;20087;-58
2023/04/23 08:44:52;;;;;;;31.23;23.50;;;16.50;99.90;;;;;;5116994;27;20059;-58
2023/04/23 08:47:19;;;;;;;30.42;23.30;;;16.60;99.90;;;;;;5135519;27;20182;-59
2023/04/23 08:49:47;;;;;;;28.65;23.90;;;16.80;99.90;;;;;;5135396;27;20035;-59
2023/04/23 08:52:21;;;;;;;29.10;24.00;;;16.80;99.90;;;;;;5153346;27;20384;-59
2023/04/23 08:54:51;;;;;;;28.73;21.92;;;17.10;99.90;;;;;;5155960;27;20185;-59
2023/04/23 08:57:17;;;;;;;28.23;21.30;;;17.10;99.90;;;;;;5155736;27;20114;-59
2023/04/23 08:59:43;;;;;;;24.88;21.15;;;17.50;99.90;;;;;;5155612;27;20034;-59
2023/04/23 09:02:10;;;;;;;35.30;22.50;;;17.50;99.90;;;;;;5156006;27;20047;-59
2023/04/23 09:04:36;;;;;;;26.20;20.75;;;17.80;99.90;;;;;;5155924;27;20042;-59
2023/04/23 09:07:11;;;;;;;27.13;21.70;;;17.90;99.90;;;;;;5156096;27;20038;-59
2023/04/23 09:09:39;;;;;;;27.52;21.38;;;18.00;99.90;;;;;;5155485;27;20122;-58
2023/04/23 09:12:06;;;;;;;25.98;20.60;;;18.30;99.90;;;;;;5155417;27;20042;-59
2023/04/23 09:14:33;;;;;;;23.42;18.88;;;18.50;99.90;;;;;;5155203;27;20066;-59
2023/04/23 09:16:58;;;;;;;27.05;20.85;;;18.50;99.90;;;;;;5155309;27;20038;-59
2023/04/23 09:19:27;;;;;;;23.48;19.92;;;18.30;99.90;;;;;;5155164;27;20031;-61
2023/04/23 09:21:54;;;;;;;23.27;18.08;;;18.20;99.90;;;;;;5155423;27;20091;-58
2023/04/23 09:24:24;;;;;;;24.17;19.42;;;18.30;99.90;;;;;;5155035;27;20034;-59
2023/04/23 09:26:51;;;;;;;20.23;17.45;;;18.50;99.90;;;;;;5155286;27;20400;-58
2023/04/23 09:29:19;;;;;;;18.13;13.60;;;19.00;99.90;;;;;;5155081;27;20074;-59
2023/04/23 09:32:01;;;;;;;21.50;16.30;;;18.90;99.90;;;;;;5154983;27;20038;-59
2023/04/23 09:34:27;;;;;;;19.90;16.67;;;18.80;99.90;;;;;;5154940;27;20043;-61
2023/04/23 09:36:53;;;;;;;18.33;15.02;;;19.10;99.90;;;;;;5155113;27;20084;-60
2023/04/23 09:39:23;;;;;;;22.52;17.45;;;18.80;99.90;;;;;;5155008;27;20035;-61
2023/04/23 09:41:51;;;;;;;17.85;13.95;;;18.60;99.90;;;;;;5154575;27;20034;-61
2023/04/23 09:44:18;;;;;;;17.63;14.13;;;18.40;99.90;;;;;;5154486;27;20051;-60
2023/04/23 09:46:44;;;;;;;17.02;12.60;;;18.20;99.90;;;;;;5154323;27;20503;-60
2023/04/23 09:49:12;;;;;;;14.80;12.32;;;18.00;99.90;;;;;;5154279;27;20066;-61
2023/04/23 09:51:40;;;;;;;15.85;13.40;;;17.90;99.90;;;;;;5154353;27;20547;-60
2023/04/23 09:54:20;;;;;;;17.48;12.65;;;17.80;99.90;;;;;;5154538;27;20038;-61
2023/04/23 09:56:56;;;;;;;16.77;13.23;;;17.70;99.90;;;;;;5154552;27;20042;-61
2023/04/23 09:59:26;;;;;;;15.40;11.48;;;17.80;99.90;;;;;;5154429;27;20133;-61
2023/04/23 10:01:53;;;;;;;14.75;11.55;;;17.70;99.90;;;;;;5154268;27;20042;-62
2023/04/23 10:04:23;;;;;;;13.68;10.45;;;17.60;99.90;;;;;;5154511;27;20039;-60
2023/04/23 10:07:01;;;;;;;16.17;9.07;;;17.30;99.90;;;;;;5154105;27;20494;-60
2023/04/23 10:09:28;;;;;;;12.85;8.52;;;17.20;99.90;;;;;;5154103;27;20476;-61
2023/04/23 10:11:57;;;;;;;13.60;8.15;;;17.20;99.90;;;;;;5154268;27;20038;-61
2023/04/23 10:14:24;;;;;;;13.13;7.65;;;17.20;99.90;;;;;;5154255;27;20049;-61
2023/04/23 10:17:00;;;;;;;11.23;6.80;;;17.10;99.90;;;;;;5154504;27;20031;-60
2023/04/23 10:19:28;;;;;;;11.38;6.40;;;17.50;99.90;;;;;;5154229;27;20031;-61
2023/04/23 10:22:06;;;;;;;11.18;6.15;;;17.40;99.90;;;;;;5154258;27;20388;-61
2023/04/23 10:24:34;;;;;;;9.00;6.93;;;17.50;99.90;;;;;;5154671;27;20061;-61
2023/04/23 10:27:04;;;;;;;17.27;7.70;;;17.40;99.90;;;;;;5154411;27;20035;-60
2023/04/23 10:29:34;;;;;;;13.45;7.32;;;17.40;99.90;;;;;;5154438;27;20038;-60
2023/04/23 10:32:05;;;;;;;14.73;7.65;;;17.90;99.90;;;;;;5154323;27;20045;-60
2023/04/23 10:34:32;;;;;;;12.20;6.57;;;17.80;99.90;;;;;;5154424;27;20034;-60
2023/04/23 10:36:59;;;;;;;10.55;5.53;;;18.00;99.90;;;;;;5136095;27;20034;-60
2023/04/23 10:39:27;;;;;;;9.38;5.20;;;18.00;99.90;;;;;;5154124;27;20037;-60
2023/04/23 10:41:54;;;;;;;12.40;6.55;;;18.20;99.90;;;;;;5154027;27;20042;-60
2023/04/23 10:44:20;;;;;;;11.23;5.43;;;18.50;99.90;;;;;;5153787;27;20058;-60
2023/04/23 10:46:56;;;;;;;8.93;4.50;;;18.20;99.90;;;;;;5145283;27;20042;-60
2023/04/23 10:49:23;;;;;;;11.02;4.55;;;18.20;99.90;;;;;;5115095;28;20054;-60
2023/04/23 10:52:06;;;;;;;9.05;4.68;;;17.90;99.90;;;;;;5133194;28;20516;-61
2023/04/23 10:54:33;;;;;;;10.80;4.90;;;17.80;99.90;;;;;;5133471;28;20071;-61
2023/04/23 10:57:07;;;;;;;11.52;5.10;;;17.80;99.90;;;;;;5140254;27;20027;-61
2023/04/23 10:59:34;;;;;;;9.77;4.25;;;17.70;99.90;;;;;;5153360;27;20134;-61
2023/04/23 11:02:10;;;;;;;8.50;4.18;;;18.00;99.90;;;;;;5152288;27;20091;-61
2023/04/23 11:04:43;;;;;;;9.27;4.22;;;18.00;99.90;;;;;;5152932;27;20038;-61
2023/04/23 11:07:10;;;;;;;7.68;3.50;;;18.00;99.90;;;;;;5153535;27;20042;-61
2023/04/23 11:09:44;;;;;;;8.52;3.83;;;18.50;99.90;;;;;;5135241;27;20130;-61
2023/04/23 11:12:30;;;;;;;8.77;3.70;;;19.00;99.90;;;;;;5153741;27;20039;-61
2023/04/23 11:15:00;;;;;;;10.35;3.33;;;19.00;99.90;;;;;;5155264;27;20046;-61
2023/04/23 11:17:31;;;;;;;7.90;3.22;;;19.20;99.90;;;;;;5157714;27;20494;-61
2023/04/23 11:20:02;;;;;;;13.23;3.20;;;19.20;99.90;;;;;;5157570;27;20525;-60
2023/04/23 11:22:40;;;;;;;9.93;3.42;;;19.50;99.90;;;;;;5154453;27;20499;-62
2023/04/23 11:25:15;;;;;;;5.38;2.78;;;19.60;99.90;;;;;;5127712;27;20043;-61
2023/04/23 11:27:42;;;;;;;9.60;2.67;;;19.50;99.90;;;;;;5157721;27;20035;-61
2023/04/23 11:30:12;;;;;;;4.97;2.55;;;19.50;99.90;;;;;;5157763;27;20038;-60
2023/04/23 11:32:47;;;;;;;5.25;2.28;;;19.90;99.90;;;;;;5157893;27;20042;-62
2023/04/23 11:35:14;;;;;;;4.88;2.47;;;19.90;99.90;;;;;;5157698;27;20105;-62
2023/04/23 11:37:41;;;;;;;7.85;2.83;;;20.20;99.90;;;;;;5157354;27;20436;-59
2023/04/23 11:40:12;;;;;;;10.52;2.75;;;20.20;99.90;;;;;;5157268;27;20469;-59
2023/04/23 11:42:45;;;;;;;8.88;2.55;;;20.40;99.90;;;;;;5157107;27;20060;-60
2023/04/23 11:45:21;;;;;;;7.65;2.80;;;20.30;99.90;;;;;;5156891;27;20099;-60
2023/04/23 11:47:49;;;;;;;6.85;2.83;;;20.20;99.90;;;;;;5157019;27;20498;-59
2023/04/23 11:50:22;;;;;;;;;;;20.20;99.90;;;;;;5157514;27;20034;-61
2023/04/23 11:52:48;;;;;;;6.43;2.58;;;20.30;99.90;;;;;;5157073;27;19919;-61
2023/04/23 11:55:15;;;;;;;6.28;2.85;;;20.20;99.90;;;;;;5157050;27;20031;-60
2023/04/23 11:57:45;;;;;;;8.23;2.85;;;20.00;99.90;;;;;;5157241;27;20087;-61
2023/04/23 12:00:15;;;;;;;8.65;2.20;;;20.00;99.90;;;;;;5157035;27;20041;-61
2023/04/23 12:02:57;;;;;;;5.43;1.92;;;20.00;99.90;;;;;;5156946;27;20039;-61
2023/04/23 12:05:39;;;;;;;10.55;2.20;;;19.70;99.90;;;;;;5156940;27;20042;-61
2023/04/23 12:08:17;;;;;;;8.93;2.25;;;19.60;99.90;;;;;;5157027;27;20035;-61
2023/04/23 12:10:52;;;;;;;8.50;2.60;;;19.60;99.90;;;;;;5157001;27;20039;-61
2023/04/23 12:13:22;;;;;;;7.35;2.72;;;19.50;99.90;;;;;;5157030;27;20043;-61
2023/04/23 12:15:49;;;;;;;9.35;2.80;;;19.70;99.90;;;;;;5138358;27;20042;-61
2023/04/23 12:18:15;;;;;;;6.65;2.60;;;20.00;99.90;;;;;;5156705;27;20464;-61
2023/04/23 12:20:41;;;;;;;5.97;1.90;;;20.10;99.90;;;;;;5156534;27;20414;-61
2023/04/23 12:23:07;;;;;;;4.72;2.00;;;20.00;99.90;;;;;;5156607;27;20035;-61
2023/04/23 12:25:34;;;;;;;4.38;1.77;;;19.70;99.90;;;;;;5156361;27;20365;-61
2023/04/23 12:28:02;;;;;;;5.90;2.17;;;19.50;99.90;;;;;;5155664;27;20056;-61
2023/04/23 12:30:29;;;;;;;4.93;1.80;;;19.60;99.90;;;;;;5156565;27;20057;-61
2023/04/23 12:33:01;;;;;;;5.50;1.70;;;19.70;99.90;;;;;;5136061;27;20075;-61